createdAt,value
2019-02-11T00:01:06.962Z,5.40
2019-02-11T00:03:48.878Z,5.30
2019-02-11T00:06:31.055Z,5.20
2019-02-11T00:09:13.362Z,5.00
2019-02-11T00:11:55.034Z,4.90
2019-02-11T00:14:37.070Z,4.90
2019-02-11T00:17:18.737Z,4.80
2019-02-11T00:20:00.739Z,4.80
2019-02-11T00:22:42.621Z,4.80
2019-02-11T00:25:24.349Z,4.70
2019-02-11T00:28:06.150Z,4.70
2019-02-11T00:30:48.007Z,4.70
2019-02-11T00:33:29.686Z,4.60
2019-02-11T00:36:11.407Z,4.60
2019-02-11T00:38:53.450Z,4.60
2019-02-11T00:41:35.330Z,4.50
2019-02-11T00:44:17.042Z,4.40
2019-02-11T00:46:59.038Z,4.40
2019-02-11T00:49:40.939Z,4.40
2019-02-11T00:52:23.530Z,4.40
2019-02-11T00:55:05.626Z,4.40
2019-02-11T00:57:47.202Z,4.40
2019-02-11T01:00:29.611Z,4.40
2019-02-11T01:03:11.910Z,4.40
2019-02-11T01:05:54.142Z,4.40
2019-02-11T01:08:36.047Z,4.40
2019-02-11T01:11:18.045Z,4.40
2019-02-11T01:14:00.583Z,4.40
2019-02-11T01:16:42.718Z,4.40
2019-02-11T01:19:24.343Z,4.40
2019-02-11T01:22:06.114Z,4.30
2019-02-11T01:24:47.898Z,4.30
2019-02-11T01:27:29.825Z,4.20
2019-02-11T01:30:11.603Z,4.20
2019-02-11T01:32:42.045Z,4.20
2019-02-11T01:35:32.833Z,4.20
2019-02-11T01:38:16.345Z,4.30
2019-02-11T01:40:58.007Z,4.30
2019-02-11T01:43:40.490Z,4.40
2019-02-11T01:46:22.146Z,4.40
2019-02-11T01:49:04.455Z,4.40
2019-02-11T01:51:46.458Z,4.30
2019-02-11T01:54:28.270Z,4.30
2019-02-11T01:57:10.543Z,4.30
2019-02-11T01:59:52.379Z,4.20
2019-02-11T02:02:34.361Z,4.20
2019-02-11T02:05:16.974Z,4.30
2019-02-11T02:07:58.790Z,4.30
2019-02-11T02:10:40.543Z,4.20
2019-02-11T02:13:22.506Z,4.20
2019-02-11T02:16:04.462Z,4.10
2019-02-11T02:18:46.222Z,4.10
2019-02-11T02:21:28.187Z,4.10
2019-02-11T02:24:10.185Z,4.10
2019-02-11T02:26:52.597Z,4.00
2019-02-11T02:29:34.521Z,4.00
2019-02-11T02:32:16.445Z,4.00
2019-02-11T02:34:58.326Z,4.00
2019-02-11T02:37:40.526Z,4.00
2019-02-11T02:40:22.559Z,4.00
2019-02-11T02:43:04.654Z,3.90
2019-02-11T02:45:46.379Z,3.90
2019-02-11T02:48:26.958Z,3.90
2019-02-11T02:51:16.465Z,3.90
2019-02-11T02:53:59.927Z,3.80
2019-02-11T02:56:41.928Z,3.80
2019-02-11T02:59:23.862Z,3.70
2019-02-11T03:02:06.161Z,3.70
2019-02-11T03:04:48.006Z,3.60
2019-02-11T03:07:30.322Z,3.60
2019-02-11T03:10:12.140Z,3.60
2019-02-11T03:12:54.146Z,3.60
2019-02-11T03:15:36.286Z,3.70
2019-02-11T03:18:18.750Z,3.70
2019-02-11T03:21:01.489Z,3.60
2019-02-11T03:23:43.329Z,3.60
2019-02-11T03:26:25.307Z,3.60
2019-02-11T03:29:07.091Z,3.50
2019-02-11T03:31:48.810Z,3.50
2019-02-11T03:34:30.897Z,3.50
2019-02-11T03:37:13.148Z,3.50
2019-02-11T03:39:55.374Z,3.50
2019-02-11T03:42:37.427Z,3.50
2019-02-11T03:45:19.475Z,3.40
2019-02-11T03:48:01.553Z,3.40
2019-02-11T03:50:43.322Z,3.30
2019-02-11T03:53:25.851Z,3.40
2019-02-11T03:56:07.884Z,3.30
2019-02-11T03:58:49.855Z,3.30
2019-02-11T04:01:31.899Z,3.30
2019-02-11T04:04:13.919Z,3.30
2019-02-11T04:06:56.374Z,3.30
2019-02-11T04:09:38.212Z,3.20
2019-02-11T04:12:20.172Z,3.20
2019-02-11T04:15:01.888Z,3.20
2019-02-11T04:17:43.602Z,3.20
2019-02-11T04:20:25.293Z,3.30
2019-02-11T04:23:07.263Z,3.30
2019-02-11T04:25:49.396Z,3.20
2019-02-11T04:28:31.794Z,3.30
2019-02-11T04:31:13.519Z,3.20
2019-02-11T04:33:58.197Z,3.10
2019-02-11T04:36:39.332Z,3.10
2019-02-11T04:39:21.396Z,3.10
2019-02-11T04:42:03.298Z,3.20
2019-02-11T04:44:45.143Z,3.10
2019-02-11T04:47:27.621Z,3.10
2019-02-11T04:50:09.725Z,3.00
2019-02-11T04:52:52.249Z,3.00
2019-02-11T04:55:34.604Z,3.00
2019-02-11T04:58:15.017Z,2.90
2019-02-11T05:01:04.395Z,2.90
2019-02-11T05:03:46.260Z,2.80
2019-02-11T05:09:37.097Z,2.70
2019-02-11T05:12:21.131Z,2.60
2019-02-11T05:15:02.967Z,2.60
2019-02-11T05:17:45.070Z,2.60
2019-02-11T05:20:27.172Z,2.50
2019-02-11T05:23:09.503Z,2.60
2019-02-11T05:25:51.246Z,2.50
2019-02-11T05:28:33.582Z,2.40
2019-02-11T05:31:15.568Z,2.40
2019-02-11T05:33:57.571Z,2.40
2019-02-11T05:36:39.647Z,2.50
2019-02-11T05:39:21.407Z,2.50
2019-02-11T05:42:03.353Z,2.50
2019-02-11T05:44:53.743Z,2.50
2019-02-11T05:47:29.082Z,2.50
2019-02-11T05:50:11.432Z,2.40
2019-02-11T05:52:53.533Z,2.50
2019-02-11T05:55:37.358Z,2.50
2019-02-11T05:58:18.930Z,2.40
2019-02-11T06:01:02.777Z,2.40
2019-02-11T06:03:44.659Z,2.40
2019-02-11T06:06:27.019Z,2.30
2019-02-11T06:09:09.310Z,2.30
2019-02-11T06:11:50.997Z,2.30
2019-02-11T06:14:33.235Z,2.40
2019-02-11T06:17:15.490Z,2.60
2019-02-11T06:19:57.909Z,2.60
2019-02-11T06:22:39.607Z,2.60
2019-02-11T06:25:21.946Z,2.60
2019-02-11T06:31:26.084Z,2.40
2019-02-11T06:34:07.977Z,2.40
2019-02-11T06:36:49.897Z,2.40
2019-02-11T06:39:31.802Z,2.40
2019-02-11T06:42:13.605Z,2.30
2019-02-11T06:44:55.678Z,2.30
2019-02-11T06:47:37.746Z,2.30
2019-02-11T06:50:19.517Z,2.30
2019-02-11T06:53:01.513Z,2.40
2019-02-11T06:55:43.763Z,2.40
2019-02-11T06:58:28.595Z,2.50
2019-02-11T07:01:10.666Z,2.50
2019-02-11T07:03:52.510Z,2.60
2019-02-11T07:06:35.110Z,2.60
2019-02-11T07:09:17.018Z,2.60
2019-02-11T07:11:59.443Z,2.60
2019-02-11T07:14:41.750Z,2.50
2019-02-11T07:17:23.830Z,2.50
2019-02-11T07:20:06.266Z,2.50
2019-02-11T07:22:48.035Z,2.60
2019-02-11T07:25:29.943Z,2.60
2019-02-11T07:28:11.786Z,2.50
2019-02-11T07:30:54.023Z,2.60
2019-02-11T07:33:35.926Z,2.60
2019-02-11T07:36:18.134Z,2.70
2019-02-11T07:38:59.794Z,2.70
2019-02-11T07:42:00.606Z,2.70
2019-02-11T07:44:51.334Z,2.60
2019-02-11T07:47:35.081Z,2.60
2019-02-11T07:50:16.826Z,2.70
2019-02-11T07:52:58.775Z,2.70
2019-02-11T07:55:40.782Z,2.80
2019-02-11T07:58:23.240Z,2.90
2019-02-11T08:01:04.945Z,2.90
2019-02-11T08:03:46.694Z,3.00
2019-02-11T08:06:28.491Z,3.00
2019-02-11T08:09:12.222Z,3.10
2019-02-11T08:11:54.364Z,3.20
2019-02-11T08:14:36.284Z,3.30
2019-02-11T08:17:18.514Z,3.30
2019-02-11T08:20:00.332Z,3.40
2019-02-11T08:22:42.090Z,3.50
2019-02-11T08:25:23.918Z,3.60
2019-02-11T08:28:05.677Z,3.70
2019-02-11T08:30:47.438Z,3.80
2019-02-11T08:33:30.531Z,4.00
2019-02-11T08:36:12.434Z,4.00
2019-02-11T08:38:54.113Z,4.00
2019-02-11T08:41:36.250Z,4.10
2019-02-11T08:44:18.076Z,4.20
2019-02-11T08:47:00.422Z,4.40
2019-02-11T08:49:42.459Z,4.50
2019-02-11T08:52:24.168Z,4.80
2019-02-11T08:55:06.097Z,4.90
2019-02-11T08:57:48.551Z,5.00
2019-02-11T09:00:30.554Z,5.00
2019-02-11T09:03:12.390Z,4.90
2019-02-11T09:05:54.445Z,4.90
2019-02-11T09:08:36.313Z,5.00
2019-02-11T09:11:18.278Z,5.00
2019-02-11T09:14:00.210Z,5.00
2019-02-11T09:16:41.934Z,5.10
2019-02-11T09:19:24.094Z,5.20
2019-02-11T09:22:07.515Z,5.20
2019-02-11T09:24:49.749Z,5.30
2019-02-11T09:27:31.817Z,5.40
2019-02-11T09:30:13.443Z,5.40
2019-02-11T09:32:55.150Z,5.50
2019-02-11T09:35:37.445Z,5.50
2019-02-11T09:38:19.258Z,5.60
2019-02-11T09:41:01.531Z,5.60
2019-02-11T09:43:43.542Z,5.60
2019-02-11T09:46:25.227Z,5.60
2019-02-11T09:49:07.318Z,5.70
2019-02-11T09:51:49.253Z,5.70
2019-02-11T09:54:30.978Z,5.80
2019-02-11T09:57:13.245Z,5.80
2019-02-11T09:59:55.544Z,5.80
2019-02-11T10:02:37.698Z,5.90
2019-02-11T10:05:19.817Z,6.10
2019-02-11T10:08:01.773Z,6.30
2019-02-11T10:10:42.197Z,6.40
2019-02-11T10:13:32.999Z,6.50
2019-02-11T10:16:16.802Z,6.60
2019-02-11T10:18:59.212Z,6.70
2019-02-11T10:21:40.918Z,6.90
2019-02-11T10:24:23.105Z,7.10
2019-02-11T10:27:04.862Z,7.30
2019-02-11T10:29:46.832Z,7.40
2019-02-11T10:32:28.802Z,7.40
2019-02-11T10:35:11.409Z,7.60
2019-02-11T10:37:53.158Z,7.60
2019-02-11T10:40:35.690Z,7.70
2019-02-11T10:43:17.805Z,7.90
2019-02-11T10:45:59.734Z,8.00
2019-02-11T10:48:41.459Z,8.10
2019-02-11T10:51:23.610Z,8.20
2019-02-11T10:54:05.166Z,8.20
2019-02-11T10:56:47.665Z,8.30
2019-02-11T10:59:30.038Z,8.40
2019-02-11T11:02:11.874Z,8.40
2019-02-11T11:04:53.984Z,8.40
2019-02-11T11:07:36.006Z,8.50
2019-02-11T11:10:18.083Z,8.60
2019-02-11T11:13:00.227Z,8.40
2019-02-11T11:15:42.326Z,8.30
2019-02-11T11:18:24.342Z,8.40
2019-02-11T11:21:07.121Z,8.60
2019-02-11T11:23:48.954Z,8.70
2019-02-11T11:26:30.706Z,8.80
2019-02-11T11:29:12.386Z,8.90
2019-02-11T11:31:54.545Z,9.00
2019-02-11T11:34:36.333Z,9.10
2019-02-11T11:37:18.682Z,9.10
2019-02-11T11:40:00.506Z,9.20
2019-02-11T11:42:42.369Z,9.20
2019-02-11T11:45:24.661Z,9.00
2019-02-11T11:48:06.997Z,9.00
2019-02-11T11:50:49.254Z,8.90
2019-02-11T11:53:31.097Z,8.90
2019-02-11T11:56:13.382Z,8.80
2019-02-11T11:58:55.252Z,8.90
2019-02-11T12:01:37.526Z,9.00
2019-02-11T12:04:19.458Z,8.90
2019-02-11T12:07:01.300Z,8.80
2019-02-11T12:09:44.083Z,8.60
2019-02-11T12:12:25.797Z,8.50
2019-02-11T12:15:08.890Z,8.50
2019-02-11T12:17:50.596Z,8.60
2019-02-11T12:20:33.755Z,8.70
2019-02-11T12:23:16.547Z,8.80
2019-02-11T12:25:58.838Z,9.00
2019-02-11T12:28:41.175Z,9.10
2019-02-11T12:31:22.985Z,9.10
2019-02-11T12:34:04.906Z,9.20
2019-02-11T12:36:47.017Z,9.40
2019-02-11T12:39:29.438Z,9.50
2019-02-11T12:42:11.434Z,9.40
2019-02-11T12:44:53.839Z,9.20
2019-02-11T12:47:35.681Z,9.40
2019-02-11T12:50:18.072Z,9.40
2019-02-11T12:53:00.108Z,9.40
2019-02-11T12:55:42.577Z,9.30
2019-02-11T12:58:25.070Z,9.20
2019-02-11T13:01:07.354Z,9.10
2019-02-11T13:03:48.973Z,8.90
2019-02-11T13:06:30.764Z,8.90
2019-02-11T13:09:13.363Z,8.80
2019-02-11T13:11:55.706Z,8.70
2019-02-11T13:14:37.509Z,8.70
2019-02-11T13:17:33.430Z,8.70
2019-02-11T13:20:08.709Z,8.60
2019-02-11T13:22:49.942Z,8.40
2019-02-11T13:25:31.927Z,8.40
2019-02-11T13:28:13.897Z,8.30
2019-02-11T13:30:56.383Z,8.40
2019-02-11T13:33:38.253Z,8.50
2019-02-11T13:36:20.420Z,8.50
2019-02-11T13:39:02.326Z,8.50
2019-02-11T13:41:44.086Z,8.60
2019-02-11T13:44:25.966Z,8.70
2019-02-11T13:47:08.043Z,8.80
2019-02-11T13:49:50.266Z,8.90
2019-02-11T13:52:32.475Z,8.80
2019-02-11T13:55:14.595Z,8.60
2019-02-11T13:57:56.364Z,8.40
2019-02-11T14:00:38.323Z,8.20
2019-02-11T14:03:20.629Z,8.00
2019-02-11T14:06:02.992Z,7.80
2019-02-11T14:08:45.605Z,7.70
2019-02-11T14:11:27.514Z,7.60
2019-02-11T14:14:09.358Z,7.50
2019-02-11T14:16:51.152Z,7.40
2019-02-11T14:19:33.268Z,7.40
2019-02-11T14:22:15.307Z,7.30
2019-02-11T14:24:57.133Z,7.30
2019-02-11T14:27:39.210Z,7.20
2019-02-11T14:30:21.256Z,7.10
2019-02-11T14:33:03.266Z,7.20
2019-02-11T14:35:45.296Z,7.10
2019-02-11T14:38:26.934Z,7.00
2019-02-11T14:41:08.690Z,7.00
2019-02-11T14:43:50.467Z,7.10
2019-02-11T14:46:32.654Z,7.00
2019-02-11T14:49:14.347Z,7.00
2019-02-11T14:51:56.378Z,6.90
2019-02-11T14:54:38.415Z,6.90
2019-02-11T14:57:20.121Z,6.90
2019-02-11T15:00:03.729Z,6.80
2019-02-11T15:02:45.746Z,6.80
2019-02-11T15:05:27.747Z,6.80
2019-02-11T15:08:09.684Z,6.70
2019-02-11T15:10:51.512Z,6.80
2019-02-11T15:13:33.374Z,6.80
2019-02-11T15:16:15.354Z,6.80
2019-02-11T15:18:57.657Z,6.80
2019-02-11T15:21:46.818Z,6.80
2019-02-11T15:24:30.680Z,6.80
2019-02-11T15:27:17.333Z,6.80
2019-02-11T15:29:56.193Z,6.80
2019-02-11T15:32:38.314Z,6.70
2019-02-11T15:35:20.540Z,6.80
2019-02-11T15:38:02.194Z,6.70
2019-02-11T15:40:44.344Z,6.70
2019-02-11T15:43:26.306Z,6.60
2019-02-11T15:46:08.462Z,6.50
2019-02-11T15:48:48.895Z,6.50
2019-02-11T15:51:38.250Z,6.60
2019-02-11T15:54:21.878Z,6.60
2019-02-11T15:57:04.026Z,6.60
2019-02-11T15:59:46.026Z,6.60
2019-02-11T16:02:28.470Z,6.50
2019-02-11T16:05:16.126Z,6.40
2019-02-11T16:07:52.494Z,6.30
2019-02-11T16:10:41.923Z,6.20
2019-02-11T16:13:25.346Z,6.10
2019-02-11T16:16:07.243Z,6.20
2019-02-11T16:18:51.752Z,6.10
2019-02-11T16:21:32.858Z,6.10
2019-02-11T16:24:14.969Z,6.10
2019-02-11T16:26:56.730Z,6.00
2019-02-11T16:29:38.762Z,6.00
2019-02-11T16:32:20.990Z,6.00
2019-02-11T16:35:03.002Z,6.10
2019-02-11T16:37:44.692Z,6.10
2019-02-11T16:40:26.799Z,6.10
2019-02-11T16:43:09.351Z,6.10
2019-02-11T16:45:51.226Z,6.10
2019-02-11T16:48:33.414Z,6.00
2019-02-11T16:51:14.999Z,6.00
2019-02-11T16:53:55.358Z,6.10
2019-02-11T16:56:44.698Z,6.10
2019-02-11T16:59:27.966Z,6.10
2019-02-11T17:02:10.218Z,6.10
2019-02-11T17:04:52.611Z,6.10
2019-02-11T17:07:41.645Z,6.10
2019-02-11T17:10:18.378Z,6.10
2019-02-11T17:13:00.482Z,6.10
2019-02-11T17:15:42.594Z,6.00
2019-02-11T17:18:24.444Z,5.90
2019-02-11T17:21:06.595Z,6.00
2019-02-11T17:23:48.614Z,5.90
2019-02-11T17:26:30.454Z,5.90
2019-02-11T17:29:12.458Z,5.80
2019-02-11T17:31:54.752Z,5.90
2019-02-11T17:34:35.274Z,5.90
2019-02-11T17:37:24.690Z,5.90
2019-02-11T17:40:11.970Z,5.80
2019-02-11T17:42:53.758Z,5.90
2019-02-11T17:45:35.707Z,5.80
2019-02-11T17:48:18.826Z,5.80
2019-02-11T17:51:01.132Z,5.70
2019-02-11T17:53:42.882Z,5.60
2019-02-11T17:56:25.080Z,5.60
2019-02-11T17:59:06.977Z,5.60
2019-02-11T18:01:48.770Z,5.60
2019-02-11T18:04:30.702Z,5.70
2019-02-11T18:07:12.438Z,5.90
2019-02-11T18:09:54.514Z,5.90
2019-02-11T18:12:36.201Z,5.90
2019-02-11T18:15:18.330Z,5.80
2019-02-11T18:18:00.105Z,5.70
2019-02-11T18:20:42.270Z,5.70
2019-02-11T18:23:24.526Z,5.70
2019-02-11T18:26:06.854Z,5.60
2019-02-11T18:28:48.986Z,5.60
2019-02-11T18:31:31.608Z,5.60
2019-02-11T18:34:13.281Z,5.60
2019-02-11T18:36:55.442Z,5.60
2019-02-11T18:39:37.450Z,5.70
2019-02-11T18:42:19.807Z,5.70
2019-02-11T18:45:01.739Z,5.80
2019-02-11T18:47:43.915Z,5.70
2019-02-11T18:50:25.726Z,5.70
2019-02-11T18:53:07.723Z,5.70
2019-02-11T18:55:49.831Z,5.70
2019-02-11T18:58:32.314Z,5.70
2019-02-11T19:01:13.910Z,5.60
2019-02-11T19:03:55.405Z,5.60
2019-02-11T19:06:35.786Z,5.70
2019-02-11T19:09:25.122Z,5.70
2019-02-11T19:12:08.781Z,5.60
2019-02-11T19:14:50.895Z,5.70
2019-02-11T19:17:32.650Z,5.80
2019-02-11T19:20:14.795Z,5.90
2019-02-11T19:22:56.697Z,5.90
2019-02-11T19:25:39.409Z,5.90
2019-02-11T19:28:21.027Z,5.90
2019-02-11T19:31:03.713Z,6.00
2019-02-11T19:33:53.043Z,6.00
2019-02-11T19:36:36.122Z,6.00
2019-02-11T19:39:18.111Z,6.00
2019-02-11T19:42:00.159Z,6.00
2019-02-11T19:44:41.870Z,6.00
2019-02-11T19:47:24.294Z,6.00
2019-02-11T19:50:06.487Z,5.90
2019-02-11T19:52:48.669Z,5.90
2019-02-11T19:55:30.394Z,6.00
2019-02-11T19:58:12.274Z,6.00
2019-02-11T20:00:55.602Z,6.00
2019-02-11T20:03:37.310Z,6.00
2019-02-11T20:06:19.027Z,6.00
2019-02-11T20:09:01.176Z,6.00
2019-02-11T20:11:43.406Z,6.00
2019-02-11T20:14:25.246Z,5.90
2019-02-11T20:17:07.221Z,5.90
2019-02-11T20:19:49.871Z,5.90
2019-02-11T20:22:35.700Z,5.90
2019-02-11T20:25:17.721Z,5.90
2019-02-11T20:28:07.121Z,5.90
2019-02-11T20:30:51.057Z,5.80
2019-02-11T20:33:32.917Z,5.80
2019-02-11T20:36:15.031Z,5.70
2019-02-11T20:38:56.976Z,5.70
2019-02-11T20:41:39.353Z,5.70
2019-02-11T20:44:21.073Z,5.60
2019-02-11T20:47:03.728Z,5.60
2019-02-11T20:49:46.011Z,5.50
2019-02-11T20:52:28.251Z,5.40
2019-02-11T20:55:10.174Z,5.50
2019-02-11T20:57:51.883Z,5.50
2019-02-11T21:00:34.829Z,5.40
2019-02-11T21:03:16.357Z,5.30
2019-02-11T21:05:58.072Z,5.20
2019-02-11T21:08:40.014Z,5.20
2019-02-11T21:11:22.026Z,5.10
2019-02-11T21:14:04.303Z,5.10
2019-02-11T21:16:46.241Z,5.10
2019-02-11T21:19:28.087Z,5.10
2019-02-11T21:21:58.381Z,5.10
2019-02-11T21:24:49.174Z,5.00
2019-02-11T21:27:32.958Z,5.00
2019-02-11T21:30:15.003Z,4.80
2019-02-11T21:32:56.907Z,4.70
2019-02-11T21:35:38.848Z,4.60
2019-02-11T21:38:20.880Z,4.60
2019-02-11T21:41:03.160Z,4.60
2019-02-11T21:43:44.839Z,4.60
2019-02-11T21:46:26.591Z,4.90
2019-02-11T21:49:08.327Z,5.10
2019-02-11T21:51:50.416Z,5.20
2019-02-11T21:54:32.726Z,5.30
2019-02-11T21:57:14.467Z,5.30
2019-02-11T21:59:56.725Z,5.40
2019-02-11T22:02:39.265Z,5.30
2019-02-11T22:05:21.528Z,5.20
2019-02-11T22:08:03.660Z,5.10
2019-02-11T22:10:45.417Z,5.10
2019-02-11T22:13:27.342Z,5.00
2019-02-11T22:16:09.133Z,4.90
2019-02-11T22:18:51.363Z,4.90
2019-02-11T22:21:33.191Z,4.90
2019-02-11T22:24:15.047Z,4.80
2019-02-11T22:26:56.908Z,4.70
2019-02-11T22:29:38.803Z,4.60
2019-02-11T22:32:20.934Z,4.60
2019-02-11T22:35:02.974Z,4.50
2019-02-11T22:37:44.666Z,4.70
2019-02-11T22:40:26.791Z,4.70
2019-02-11T22:43:08.894Z,4.70
2019-02-11T22:45:50.977Z,4.90
2019-02-11T22:48:32.886Z,5.20
2019-02-11T22:51:15.116Z,5.30
2019-02-11T22:53:57.063Z,5.30
2019-02-11T22:56:39.318Z,5.40
2019-02-11T22:59:21.430Z,5.50
2019-02-11T23:02:04.105Z,5.50
2019-02-11T23:04:45.838Z,5.50
2019-02-11T23:07:28.198Z,5.60
2019-02-11T23:10:10.967Z,5.50
2019-02-11T23:12:52.865Z,5.40
2019-02-11T23:15:35.122Z,5.30
2019-02-11T23:18:17.338Z,5.30
2019-02-11T23:20:59.054Z,5.30
2019-02-11T23:23:41.586Z,5.30
2019-02-11T23:26:23.538Z,5.40
2019-02-11T23:29:05.499Z,5.50
2019-02-11T23:31:47.257Z,5.50
2019-02-11T23:34:29.630Z,5.50
2019-02-11T23:37:11.594Z,5.40
2019-02-11T23:39:53.314Z,5.30
2019-02-11T23:42:35.194Z,5.20
2019-02-11T23:45:17.706Z,5.10
2019-02-11T23:47:59.568Z,5.00
2019-02-11T23:50:41.695Z,4.90
2019-02-11T23:53:24.026Z,4.90
2019-02-11T23:56:05.970Z,4.90
2019-02-11T23:58:47.618Z,5.00
